createdAt,value
2022-12-12T00:10:00.687Z,25.73
2022-12-12T00:15:36.643Z,22.65
2022-12-12T00:21:40.141Z,23.13
2022-12-12T00:27:11.680Z,20.98
2022-12-12T00:35:09.353Z,21.42
2022-12-12T00:46:23.334Z,21.33
2022-12-12T00:49:11.820Z,21.27
2022-12-12T01:06:08.294Z,20.08
2022-12-12T01:11:23.991Z,21.08
2022-12-12T01:19:40.511Z,19.65
2022-12-12T01:22:12.633Z,20.92
2022-12-12T01:24:42.813Z,24.95
2022-12-12T01:37:58.925Z,22.83
2022-12-12T01:40:45.735Z,23.67
2022-12-12T01:46:34.850Z,21.85
2022-12-12T01:49:29.876Z,21.92
2022-12-12T02:00:41.246Z,24.80
2022-12-12T02:03:10.649Z,20.98
2022-12-12T02:06:00.331Z,19.42
2022-12-12T02:08:29.062Z,19.50
2022-12-12T02:13:46.666Z,18.25
2022-12-12T02:16:48.822Z,20.67
2022-12-12T02:22:39.958Z,20.13
2022-12-12T02:25:41.523Z,24.52
2022-12-12T02:28:24.519Z,20.20
2022-12-12T02:31:25.986Z,20.88
2022-12-12T02:34:29.562Z,19.17
2022-12-12T02:37:30.060Z,20.13
2022-12-12T02:40:34.974Z,18.23
2022-12-12T02:43:24.851Z,20.65
2022-12-12T02:46:12.570Z,18.13
2022-12-12T02:48:50.342Z,18.63
2022-12-12T02:51:19.999Z,17.67
2022-12-12T02:53:48.272Z,18.70
2022-12-12T02:56:49.163Z,20.02
2022-12-12T02:59:32.834Z,18.35
2022-12-12T03:02:32.554Z,16.63
2022-12-12T03:11:07.480Z,15.32
2022-12-12T03:13:59.285Z,20.60
2022-12-12T03:19:24.004Z,23.02
2022-12-12T03:22:12.656Z,20.15
2022-12-12T03:25:03.588Z,19.58
2022-12-12T03:28:20.407Z,19.05
2022-12-12T03:33:40.488Z,20.95
2022-12-12T03:36:41.199Z,24.42
2022-12-12T03:39:41.120Z,20.23
2022-12-12T03:42:32.990Z,20.15
2022-12-12T03:45:16.302Z,19.27
2022-12-12T03:48:01.186Z,18.10
2022-12-12T03:50:45.201Z,18.08
2022-12-12T03:53:17.994Z,18.90
2022-12-12T03:56:07.745Z,18.80
2022-12-12T03:59:03.662Z,14.82
2022-12-12T04:02:22.143Z,17.45
2022-12-12T04:05:01.047Z,18.17
2022-12-12T04:07:38.274Z,19.25
2022-12-12T04:10:25.983Z,17.98
2022-12-12T04:13:14.641Z,19.08
2022-12-12T04:16:03.190Z,19.23
2022-12-12T04:18:56.368Z,19.25
2022-12-12T04:22:00.407Z,20.95
2022-12-12T04:24:46.859Z,22.38
2022-12-12T04:27:30.051Z,22.05
2022-12-12T04:30:13.133Z,19.73
2022-12-12T04:32:51.185Z,22.00
2022-12-12T04:35:34.864Z,19.85
2022-12-12T04:38:10.399Z,20.30
2022-12-12T04:40:52.369Z,19.27
2022-12-12T04:43:34.845Z,19.67
2022-12-12T04:46:17.368Z,19.83
2022-12-12T04:48:53.956Z,29.60
2022-12-12T04:51:33.913Z,26.33
2022-12-12T04:54:25.394Z,19.25
2022-12-12T04:56:59.088Z,25.20
2022-12-12T04:59:27.235Z,21.10
2022-12-12T05:02:00.464Z,20.25
2022-12-12T05:04:42.037Z,19.38
2022-12-12T05:07:18.060Z,20.45
2022-12-12T05:09:45.580Z,22.73
2022-12-12T05:12:14.872Z,19.92
2022-12-12T05:14:42.207Z,20.45
2022-12-12T05:17:16.985Z,34.83
2022-12-12T05:19:44.185Z,21.83
2022-12-12T05:22:11.857Z,24.23
2022-12-12T05:31:31.544Z,22.38
2022-12-12T05:34:19.447Z,23.08
2022-12-12T05:37:05.356Z,24.33
2022-12-12T05:39:39.807Z,22.42
2022-12-12T05:44:59.194Z,23.20
2022-12-12T05:47:27.773Z,20.38
2022-12-12T05:49:57.878Z,21.42
2022-12-12T05:52:29.730Z,22.25
2022-12-12T05:55:02.374Z,21.90
2022-12-12T05:58:41.200Z,23.20
2022-12-12T06:01:17.978Z,22.30
2022-12-12T06:06:52.048Z,26.25
2022-12-12T06:09:26.267Z,22.05
2022-12-12T06:11:57.018Z,21.70
2022-12-12T06:14:41.116Z,25.23
2022-12-12T06:20:00.127Z,24.10
2022-12-12T06:25:14.477Z,21.80
2022-12-12T06:27:46.871Z,22.98
2022-12-12T06:30:26.938Z,22.05
2022-12-12T06:32:55.698Z,23.17
2022-12-12T06:35:23.456Z,24.83
2022-12-12T06:37:52.339Z,23.08
2022-12-12T06:40:20.883Z,25.23
2022-12-12T06:48:13.134Z,22.58
2022-12-12T06:50:42.394Z,24.17
2022-12-12T06:55:57.192Z,21.17
2022-12-12T07:04:19.561Z,24.13
2022-12-12T07:09:47.145Z,22.75
2022-12-12T07:14:55.180Z,22.52
2022-12-12T07:33:59.336Z,26.52
2022-12-12T08:12:58.813Z,23.52
2022-12-12T08:15:27.483Z,25.10
2022-12-12T08:18:02.645Z,23.88
2022-12-12T08:36:58.537Z,27.25
2022-12-12T08:45:08.489Z,35.72
2022-12-12T08:47:40.876Z,34.45
2022-12-12T08:50:15.696Z,32.55
2022-12-12T08:55:33.898Z,26.52
2022-12-12T08:58:01.164Z,23.92
2022-12-12T09:00:42.558Z,29.00
2022-12-12T09:03:10.948Z,29.17
2022-12-12T09:05:51.583Z,26.90
2022-12-12T09:08:21.387Z,24.27
2022-12-12T09:10:55.436Z,26.10
2022-12-12T09:13:23.066Z,24.10
2022-12-12T09:15:57.270Z,28.05
2022-12-12T09:18:28.451Z,25.15
2022-12-12T09:20:59.327Z,24.63
2022-12-12T09:26:10.751Z,25.55
2022-12-12T09:28:42.145Z,23.92
2022-12-12T09:31:14.766Z,21.42
2022-12-12T09:43:01.438Z,24.67
2022-12-12T10:21:38.942Z,23.90
2022-12-12T10:24:21.329Z,23.85
2022-12-12T10:26:56.576Z,25.20
2022-12-12T10:29:39.665Z,23.88
2022-12-12T10:32:34.645Z,24.60
2022-12-12T10:35:26.131Z,24.15
2022-12-12T10:38:35.090Z,25.10
2022-12-12T10:41:16.543Z,23.90
2022-12-12T11:13:16.120Z,26.27
2022-12-12T11:16:24.769Z,24.92
2022-12-12T11:19:24.237Z,24.33
2022-12-12T11:24:53.771Z,25.55
2022-12-12T11:33:32.638Z,24.95
2022-12-12T11:36:09.057Z,29.15
2022-12-12T11:38:55.523Z,26.70
2022-12-12T11:41:25.260Z,24.40
2022-12-12T12:01:29.533Z,24.75
2022-12-12T12:04:28.279Z,25.90
2022-12-12T12:10:43.499Z,23.02
2022-12-12T12:13:39.566Z,23.55
2022-12-12T12:16:22.227Z,22.88
2022-12-12T12:19:42.793Z,25.10
2022-12-12T12:22:50.410Z,22.55
2022-12-12T12:25:44.479Z,24.65
2022-12-12T12:39:03.762Z,23.65
2022-12-12T12:41:45.897Z,25.33
2022-12-12T12:44:51.059Z,23.25
2022-12-12T12:48:10.580Z,24.67
2022-12-12T12:50:57.119Z,24.67
2022-12-12T12:56:26.335Z,23.52
2022-12-12T13:01:41.477Z,22.88
2022-12-12T13:06:45.246Z,23.05
2022-12-12T13:12:22.683Z,28.92
2022-12-12T13:15:30.956Z,26.77
2022-12-12T13:21:33.971Z,22.45
2022-12-12T13:24:20.883Z,31.30
2022-12-12T13:27:17.447Z,24.92
2022-12-12T13:30:21.927Z,23.45
2022-12-12T13:41:15.244Z,24.42
2022-12-12T13:43:57.432Z,23.45
2022-12-12T13:46:28.135Z,22.15
2022-12-12T13:49:07.645Z,24.00
2022-12-12T13:51:44.855Z,21.23
2022-12-12T13:54:14.119Z,21.85
2022-12-12T13:56:53.944Z,21.73
2022-12-12T13:59:33.666Z,22.38
2022-12-12T14:02:35.017Z,24.33
2022-12-12T14:05:38.042Z,23.30
2022-12-12T14:08:12.690Z,23.80
2022-12-12T14:18:59.930Z,25.20
2022-12-12T14:44:36.963Z,28.85
2022-12-12T14:47:11.442Z,23.88
2022-12-12T14:49:50.074Z,28.65
2022-12-12T14:52:31.748Z,24.08
2022-12-12T14:55:02.117Z,23.90
2022-12-12T14:57:32.865Z,26.83
2022-12-12T15:00:03.451Z,23.88
2022-12-12T15:02:42.075Z,26.35
2022-12-12T15:05:13.533Z,26.95
2022-12-12T15:07:42.040Z,25.80
2022-12-12T15:10:31.002Z,22.90
2022-12-12T15:13:02.707Z,22.63
2022-12-12T15:15:34.554Z,23.25
2022-12-12T15:18:03.402Z,23.15
2022-12-12T15:20:33.694Z,24.55
2022-12-12T15:23:07.693Z,24.23
2022-12-12T15:25:55.146Z,26.80
2022-12-12T15:28:25.257Z,25.02
2022-12-12T15:30:56.149Z,25.33
2022-12-12T15:33:26.808Z,32.25
2022-12-12T15:36:02.987Z,25.52
2022-12-12T15:38:32.500Z,28.38
2022-12-12T15:41:09.558Z,32.08
2022-12-12T15:43:40.856Z,26.38
2022-12-12T15:46:16.297Z,22.92
2022-12-12T15:48:49.998Z,23.55
2022-12-12T15:51:24.710Z,22.25
2022-12-12T15:53:55.581Z,26.52
2022-12-12T15:56:28.011Z,24.13
2022-12-12T15:59:04.136Z,22.48
2022-12-12T16:01:32.063Z,24.80
2022-12-12T16:04:10.470Z,21.70
2022-12-12T16:06:43.387Z,21.25
2022-12-12T16:09:10.616Z,23.23
2022-12-12T16:11:58.949Z,21.83
2022-12-12T16:14:43.611Z,21.90
2022-12-12T16:20:04.945Z,21.13
2022-12-12T16:22:42.682Z,21.80
2022-12-12T16:25:27.549Z,22.10
2022-12-12T16:28:10.135Z,23.25
2022-12-12T16:30:43.156Z,22.35
2022-12-12T16:33:34.327Z,22.88
2022-12-12T16:36:06.081Z,21.08
2022-12-12T16:38:34.186Z,20.52
2022-12-12T16:41:10.863Z,19.48
2022-12-12T16:43:40.179Z,23.10
2022-12-12T16:46:21.808Z,21.13
2022-12-12T16:48:50.697Z,20.67
2022-12-12T16:51:31.349Z,19.95
2022-12-12T16:54:00.143Z,21.10
2022-12-12T16:56:29.453Z,22.13
2022-12-12T16:58:58.028Z,22.80
2022-12-12T17:01:26.067Z,22.27
2022-12-12T17:03:56.209Z,20.75
2022-12-12T17:09:00.491Z,18.48
2022-12-12T17:11:34.209Z,20.98
2022-12-12T17:14:08.869Z,25.40
2022-12-12T17:16:39.184Z,22.77
2022-12-12T17:19:08.860Z,21.85
2022-12-12T17:21:37.824Z,22.98
2022-12-12T17:24:05.892Z,20.98
2022-12-12T17:26:34.072Z,20.00
2022-12-12T17:29:03.052Z,21.08
2022-12-12T17:31:31.014Z,21.30
2022-12-12T17:34:00.631Z,20.40
2022-12-12T17:36:28.534Z,22.83
2022-12-12T17:38:58.982Z,22.92
2022-12-12T17:44:12.381Z,20.50
2022-12-12T17:46:41.686Z,25.15
2022-12-12T17:49:09.332Z,25.83
2022-12-12T17:51:38.805Z,20.63
2022-12-12T17:54:07.288Z,20.90
2022-12-12T17:56:36.276Z,21.42
2022-12-12T17:59:06.245Z,22.85
2022-12-12T18:01:34.361Z,21.35
2022-12-12T18:04:04.845Z,22.25
2022-12-12T18:06:35.394Z,23.05
2022-12-12T18:09:05.295Z,40.65
2022-12-12T18:11:36.963Z,22.48
2022-12-12T18:14:09.349Z,23.88
2022-12-12T18:16:38.225Z,21.60
2022-12-12T18:19:05.664Z,25.83
2022-12-12T18:24:24.867Z,21.77
2022-12-12T18:26:59.299Z,22.90
2022-12-12T18:29:29.358Z,20.02
2022-12-12T18:31:58.774Z,20.38
2022-12-12T18:34:27.311Z,24.45
2022-12-12T18:36:57.703Z,20.35
2022-12-12T18:39:26.762Z,19.60
2022-12-12T18:41:54.122Z,23.10
2022-12-12T18:44:22.842Z,24.63
2022-12-12T18:46:52.531Z,23.98
2022-12-12T18:49:20.571Z,23.50
2022-12-12T18:51:50.743Z,24.63
2022-12-12T18:54:19.383Z,20.67
2022-12-12T18:56:48.607Z,23.45
2022-12-12T18:59:19.386Z,23.45
2022-12-12T19:01:50.875Z,20.23
2022-12-12T19:04:23.413Z,19.75
2022-12-12T19:06:53.092Z,19.00
2022-12-12T19:09:21.932Z,19.13
2022-12-12T19:11:50.465Z,21.77
2022-12-12T19:14:18.446Z,19.88
2022-12-12T19:16:47.241Z,26.08
2022-12-12T19:19:16.005Z,21.60
2022-12-12T19:21:44.768Z,19.15
2022-12-12T19:24:12.796Z,20.48
2022-12-12T19:26:44.013Z,19.90
2022-12-12T19:29:16.640Z,22.13
2022-12-12T19:31:45.114Z,21.67
2022-12-12T19:34:14.678Z,25.63
2022-12-12T19:36:43.882Z,24.63
2022-12-12T19:39:12.996Z,23.15
2022-12-12T19:41:41.099Z,22.92
2022-12-12T19:44:14.500Z,24.80
2022-12-12T19:46:46.440Z,23.47
2022-12-12T19:49:17.074Z,24.20
2022-12-12T19:51:47.087Z,21.75
2022-12-12T19:54:20.152Z,23.85
2022-12-12T19:56:52.284Z,22.35
2022-12-12T19:59:21.192Z,23.63
2022-12-12T20:01:49.425Z,28.27
2022-12-12T20:04:23.652Z,27.83
2022-12-12T20:06:53.208Z,28.48
2022-12-12T20:14:43.130Z,24.77
2022-12-12T20:17:11.247Z,20.95
2022-12-12T20:19:39.312Z,24.73
2022-12-12T20:22:11.342Z,25.55
2022-12-12T20:24:42.554Z,21.58
2022-12-12T20:27:12.460Z,24.15
2022-12-12T20:29:40.370Z,21.73
2022-12-12T20:32:08.708Z,20.92
2022-12-12T20:37:21.833Z,21.88
2022-12-12T20:39:49.834Z,20.60
2022-12-12T20:42:17.350Z,25.75
2022-12-12T20:44:44.919Z,24.25
2022-12-12T20:47:17.205Z,27.13
2022-12-12T20:49:44.701Z,28.30
2022-12-12T20:52:12.336Z,32.53
2022-12-12T20:54:39.780Z,31.48
2022-12-12T20:57:07.635Z,27.65
2022-12-12T20:59:35.249Z,37.88
2022-12-12T21:02:02.885Z,37.60
2022-12-12T21:04:32.085Z,31.08
2022-12-12T21:07:00.731Z,31.98
2022-12-12T21:09:28.760Z,32.95
2022-12-12T21:11:58.672Z,43.47
2022-12-12T21:14:28.681Z,46.90
2022-12-12T21:16:56.598Z,35.08
2022-12-12T21:19:24.591Z,32.92
2022-12-12T21:21:52.515Z,35.55
2022-12-12T21:24:20.915Z,35.50
2022-12-12T21:26:49.357Z,30.67
2022-12-12T21:29:17.342Z,32.22
2022-12-12T21:31:51.065Z,34.70
2022-12-12T21:34:21.661Z,29.08
2022-12-12T21:36:54.781Z,25.83
2022-12-12T21:39:28.883Z,26.33
2022-12-12T21:41:57.147Z,26.30
2022-12-12T21:44:25.875Z,27.10
2022-12-12T21:46:54.597Z,30.48
2022-12-12T21:49:32.005Z,25.85
2022-12-12T21:52:02.837Z,23.70
2022-12-12T21:54:32.419Z,24.02
2022-12-12T21:57:01.974Z,23.95
2022-12-12T21:59:30.278Z,25.50
2022-12-12T22:02:00.776Z,25.20
2022-12-12T22:04:32.257Z,25.17
2022-12-12T22:07:01.771Z,23.88
2022-12-12T22:09:31.158Z,25.35
2022-12-12T22:12:03.582Z,21.90
2022-12-12T22:14:33.715Z,23.30
2022-12-12T22:17:03.251Z,21.83
2022-12-12T22:19:32.617Z,23.40
2022-12-12T22:22:01.303Z,25.08
2022-12-12T22:24:30.149Z,28.52
2022-12-12T22:27:00.457Z,22.10
2022-12-12T22:29:28.810Z,23.42
2022-12-12T22:31:57.133Z,27.70
2022-12-12T22:34:26.818Z,25.20
2022-12-12T22:36:55.467Z,28.98
2022-12-12T22:39:27.743Z,28.08
2022-12-12T22:41:57.690Z,31.05
2022-12-12T22:44:27.390Z,24.60
2022-12-12T22:46:56.938Z,30.60
2022-12-12T22:49:27.535Z,26.67
2022-12-12T22:54:43.193Z,25.50
2022-12-12T22:57:15.142Z,22.92
2022-12-12T22:59:45.139Z,24.73
2022-12-12T23:02:23.136Z,24.30
2022-12-12T23:04:54.636Z,21.10
2022-12-12T23:10:05.206Z,23.17
2022-12-12T23:12:34.414Z,24.27
2022-12-12T23:15:01.962Z,22.30
2022-12-12T23:17:29.995Z,21.60
2022-12-12T23:19:57.860Z,22.27
2022-12-12T23:22:26.292Z,23.40
2022-12-12T23:24:55.249Z,20.75
2022-12-12T23:27:23.321Z,21.92
2022-12-12T23:29:52.107Z,20.55
2022-12-12T23:32:20.800Z,22.20
2022-12-12T23:34:49.173Z,23.60
2022-12-12T23:37:20.511Z,29.63
2022-12-12T23:39:52.364Z,25.50
2022-12-12T23:42:20.698Z,24.48
2022-12-12T23:44:51.150Z,19.70
2022-12-12T23:47:20.155Z,19.90
2022-12-12T23:49:48.873Z,18.88
2022-12-12T23:52:17.992Z,18.35
2022-12-12T23:54:55.153Z,19.05
2022-12-12T23:57:24.337Z,20.50
2022-12-12T23:59:53.466Z,16.88
